Ship Status Report: callsign BAREU51

sailwx.info

Track history (hours):
 
Tides and Currents Weather Stations Pressure Air Temp Water Temp Dewpoint Dewpoint Depression Visibility Wind Speed Wind Dir Waves Ship Positions

Callsign BAREU51 (name unknown)

Last reported at 2017-Feb-21 05:00 UTC. Time now 2017-Feb-21 05:39 UTC.
Position N 42°06' E 010°06'.

Barometer 1022.3 mb
Air temperature 12.9 ° C

Date/timePositionNaut miles runAvg speedWind from/ knotsBaromVisibWave heightAir tempDewpointWater temp
2017-Feb-21 05:00N 42°06' E 010°06'2020.1 1022.3 12.9
2017-Feb-21 04:00N 42°24' E 009°54'2424.4 1022.3 12.7
2017-Feb-21 03:00N 42°48' E 010°00'2424.4 1022.2 12.3
2017-Feb-21 02:00N 43°12' E 009°54'2020.0 1022.1 12.2
2017-Feb-21 01:00N 43°30' E 009°42'2222.2 1022.8 12.3
2017-Feb-21 00:00N 43°48' E 009°24'2727.3 1022.9 12.6
2017-Feb-20 23:00N 44°12' E 009°06'7 0.3 1022.8 11.5
2017-Feb-19 19:00N 44°18' E 009°00'2222.2 1023.4 11.9
2017-Feb-19 18:00N 44°00' E 009°18'2020.0 1023.4 12.2
2017-Feb-19 17:00N 43°42' E 009°30'2727.3 1023.4 12.3
2017-Feb-19 16:00N 43°18' E 009°48'2020.0 1023.5 12.8
2017-Feb-19 15:00N 43°00' E 010°00'1918.5 1023.8 12.9
2017-Feb-19 14:00N 42°42' E 010°06'2525.2 1024.2 13.3
2017-Feb-19 13:00N 42°24' E 010°30'2222.4 1024.3 12.5
2017-Feb-19 12:00N 42°06' E 010°48'2625.6 1024.6 11.8
2017-Feb-19 11:00N 41°42' E 011°00'2020.1 1025.0 11.8
2017-Feb-19 10:00N 41°24' E 011°12'2827.6 1024.6 11.9
2017-Feb-19 09:00N 41°00' E 011°30'2020.2 1024.4 13.1
2017-Feb-19 08:00N 40°42' E 011°42'2020.2 1023.8 13.0
2017-Feb-19 07:00N 40°24' E 011°54'2625.7 1022.8 12.5
2017-Feb-19 06:00N 40°00' E 012°06'2322.7 1021.9 13.3
2017-Feb-19 05:00N 39°42' E 012°24'2625.7 1021.1 13.3
2017-Feb-19 04:00N 39°18' E 012°36'2020.3 1020.6 13.0
2017-Feb-19 03:00N 39°00' E 012°48'2322.8 1021.0 12.7
2017-Feb-19 02:00N 38°42' E 013°06'2625.8 1020.9 12.9
2017-Feb-19 01:00N 38°18' E 013°18'8 1.3 1021.2 12.4
2017-Feb-18 19:00N 38°12' E 013°24'2020.3 1020.9 13.1
2017-Feb-18 18:00N 38°30' E 013°12'2322.8 1020.8 13.0
2017-Feb-18 17:00N 38°48' E 012°54'2322.8 1020.4 13.4
2017-Feb-18 16:00N 39°06' E 012°36'2625.7 1020.5 13.9
2017-Feb-18 15:00N 39°30' E 012°24'2322.7 1020.4 14.1
2017-Feb-18 14:00N 39°48' E 012°06'2322.7 1020.2 13.6
2017-Feb-18 13:00N 40°06' E 011°48'2020.2 1020.0 13.8
2017-Feb-18 12:00N 40°24' E 011°36'2827.6 1021.3 14.1
2017-Feb-18 11:00N 40°48' E 011°18'2322.6 1021.1 13.6
2017-Feb-18 10:00N 41°06' E 011°00'2020.1 1021.8 14.8
2017-Feb-18 09:00N 41°24' E 010°48'2222.5 1021.5 13.8
2017-Feb-18 08:00N 41°42' E 010°30'2222.4 1021.0 12.3
2017-Feb-18 07:00N 42°00' E 010°12'2727.5 1021.8 12.0
2017-Feb-18 06:00N 42°24' E 009°54'2424.4 1022.2 11.5
2017-Feb-18 05:00N 42°48' E 010°00'1818.0 1020.8 10.7
2017-Feb-18 04:00N 43°06' E 010°00'2222.3 1020.5 11.4
2017-Feb-18 03:00N 43°24' E 009°42'2625.5 1021.1 13.2
2017-Feb-18 02:00N 43°48' E 009°30'1514.8 1021.9 12.7
2017-Feb-18 01:00N 44°00' E 009°18'2222.2 1021.8 12.3
2017-Feb-18 00:00N 44°18' E 009°00'0 0.0 1022.2 11.5
2017-Feb-17 18:00N 44°18' E 009°00'2222.2 1022.1 13.1
2017-Feb-17 17:00N 44°00' E 009°18'2020.0 1021.6 13.1
2017-Feb-17 16:00N 43°42' E 009°30'2727.3 1021.0 13.5
2017-Feb-17 15:00N 43°18' E 009°48'1514.8 1022.8 13.5
2017-Feb-17 14:00N 43°06' E 010°00'2424.4 1024.8 14.3
2017-Feb-17 13:00N 42°42' E 010°06'1817.9 1025.8 14.4
2017-Feb-17 12:00N 42°30' E 010°24'2222.4 1026.7 13.8
2017-Feb-17 11:00N 42°12' E 010°42'2020.1 1027.6 14.1
2017-Feb-17 10:00N 41°54' E 010°54'2625.6 1028.2 14.3
2017-Feb-17 09:00N 41°30' E 011°06'2020.1 1028.6 14.3
2017-Feb-17 08:00N 41°12' E 011°18'1515.0 1029.3 13.8
2017-Feb-17 07:00N 41°00' E 011°30'2020.2 1029.0 13.2
2017-Feb-17 06:00N 40°42' E 011°42'2625.7 1028.9 12.7
2017-Feb-17 05:00N 40°18' E 011°54'2322.7 1029.3 12.5
2017-Feb-17 04:00N 40°00' E 012°12'2020.2 1029.7 12.3
2017-Feb-17 03:00N 39°42' E 012°24'2625.7 1030.1 12.3
2017-Feb-17 02:00N 39°18' E 012°36'2322.8 1030.7 12.3
2017-Feb-17 01:00N 39°00' E 012°54'2625.8 1031.0 12.4
2017-Feb-17 00:00N 38°36' E 013°06'2322.9 1031.1 12.7
2017-Feb-16 23:00N 38°18' E 013°24'6 1.0 1031.7 12.3
2017-Feb-16 17:00N 38°12' E 013°24'2020.3 1031.8 13.0
2017-Feb-16 16:00N 38°30' E 013°12'2322.8 1031.4 13.8
2017-Feb-16 15:00N 38°48' E 012°54'2020.3 1032.1 14.5
2017-Feb-16 14:00N 39°06' E 012°42'2827.7 1032.5 14.8
2017-Feb-16 13:00N 39°30' E 012°24'2322.7 1032.6 14.8
2017-Feb-16 12:00N 39°48' E 012°06'2322.7 1033.1 14.6
2017-Feb-16 11:00N 40°06' E 011°48'2020.2 1033.7 14.6
2017-Feb-16 10:00N 40°24' E 011°36'2827.6 1033.7 14.4
2017-Feb-16 09:00N 40°48' E 011°18'2322.6 1033.4 14.0
2017-Feb-16 08:00N 41°06' E 011°00'2322.5 1033.5 13.4
2017-Feb-16 07:00N 41°24' E 010°42'2625.6 1033.3 12.9
2017-Feb-16 06:00N 41°48' E 010°30'2222.4 1033.0 12.8
2017-Feb-16 05:00N 42°06' E 010°12'2222.4 1033.1 12.9
2017-Feb-16 04:00N 42°24' E 009°54'2424.4 1033.3 12.7
2017-Feb-16 03:00N 42°48' E 010°00'2424.4 1033.4 12.0
2017-Feb-16 02:00N 43°12' E 009°54'2020.0 1033.6 12.3
2017-Feb-16 01:00N 43°30' E 009°42'2222.2 1033.9 12.2
2017-Feb-16 00:00N 43°48' E 009°24'2727.3 1034.1 12.0
2017-Feb-15 23:00N 44°12' E 009°06'13 2.1 1034.0 11.7
2017-Feb-15 17:00N 44°24' E 009°00'1918.5 1034.5 12.4
2017-Feb-15 16:00N 44°06' E 009°06'1312.8 1034.1 13.4
2017-Feb-15 15:00N 43°54' E 009°00'4 4.3 1035.0 14.7
2017-Feb-15 14:00N 43°54' E 008°54'7 7.4 1035.2 13.4
2017-Feb-15 13:00N 44°00' E 009°00'7 7.4 1034.7 13.6
2017-Feb-15 12:00N 43°54' E 008°54'1110.5 1036.0 14.4
2017-Feb-15 11:00N 44°00' E 009°06'1312.8 1035.7 13.6
2017-Feb-15 10:00N 44°12' E 009°00'   1035.2 13.3
Track history (hours):
 
Tides and Currents Weather Stations Pressure Air Temp Water Temp Dewpoint Dewpoint Depression Visibility Wind Speed Wind Dir Waves Ship Positions

Callsign BAREU51 (name unknown)

Last reported at 2017-Feb-21 05:00 UTC. Time now 2017-Feb-21 05:39 UTC.
Position N 42°06' E 010°06'.

Barometer 1022.3 mb
Air temperature 12.9 ° C

Date/timePositionNaut miles runAvg speedWind from/ knotsBaromVisibWave heightAir tempDewpointWater temp
2017-Feb-21 05:00N 42°06' E 010°06'2020.1 1022.3 12.9
2017-Feb-21 04:00N 42°24' E 009°54'2424.4 1022.3 12.7
2017-Feb-21 03:00N 42°48' E 010°00'2424.4 1022.2 12.3
2017-Feb-21 02:00N 43°12' E 009°54'2020.0 1022.1 12.2
2017-Feb-21 01:00N 43°30' E 009°42'2222.2 1022.8 12.3
2017-Feb-21 00:00N 43°48' E 009°24'2727.3 1022.9 12.6
2017-Feb-20 23:00N 44°12' E 009°06'7 0.3 1022.8 11.5
2017-Feb-19 19:00N 44°18' E 009°00'2222.2 1023.4 11.9
2017-Feb-19 18:00N 44°00' E 009°18'2020.0 1023.4 12.2
2017-Feb-19 17:00N 43°42' E 009°30'2727.3 1023.4 12.3
2017-Feb-19 16:00N 43°18' E 009°48'2020.0 1023.5 12.8
2017-Feb-19 15:00N 43°00' E 010°00'1918.5 1023.8 12.9
2017-Feb-19 14:00N 42°42' E 010°06'2525.2 1024.2 13.3
2017-Feb-19 13:00N 42°24' E 010°30'2222.4 1024.3 12.5
2017-Feb-19 12:00N 42°06' E 010°48'2625.6 1024.6 11.8
2017-Feb-19 11:00N 41°42' E 011°00'2020.1 1025.0 11.8
2017-Feb-19 10:00N 41°24' E 011°12'2827.6 1024.6 11.9
2017-Feb-19 09:00N 41°00' E 011°30'2020.2 1024.4 13.1
2017-Feb-19 08:00N 40°42' E 011°42'2020.2 1023.8 13.0
2017-Feb-19 07:00N 40°24' E 011°54'2625.7 1022.8 12.5
2017-Feb-19 06:00N 40°00' E 012°06'2322.7 1021.9 13.3
2017-Feb-19 05:00N 39°42' E 012°24'2625.7 1021.1 13.3
2017-Feb-19 04:00N 39°18' E 012°36'2020.3 1020.6 13.0
2017-Feb-19 03:00N 39°00' E 012°48'2322.8 1021.0 12.7
2017-Feb-19 02:00N 38°42' E 013°06'2625.8 1020.9 12.9
2017-Feb-19 01:00N 38°18' E 013°18'8 1.3 1021.2 12.4
2017-Feb-18 19:00N 38°12' E 013°24'2020.3 1020.9 13.1
2017-Feb-18 18:00N 38°30' E 013°12'2322.8 1020.8 13.0
2017-Feb-18 17:00N 38°48' E 012°54'2322.8 1020.4 13.4
2017-Feb-18 16:00N 39°06' E 012°36'2625.7 1020.5 13.9
2017-Feb-18 15:00N 39°30' E 012°24'2322.7 1020.4 14.1
2017-Feb-18 14:00N 39°48' E 012°06'2322.7 1020.2 13.6
2017-Feb-18 13:00N 40°06' E 011°48'2020.2 1020.0 13.8
2017-Feb-18 12:00N 40°24' E 011°36'2827.6 1021.3 14.1
2017-Feb-18 11:00N 40°48' E 011°18'2322.6 1021.1 13.6
2017-Feb-18 10:00N 41°06' E 011°00'2020.1 1021.8 14.8
2017-Feb-18 09:00N 41°24' E 010°48'2222.5 1021.5 13.8
2017-Feb-18 08:00N 41°42' E 010°30'2222.4 1021.0 12.3
2017-Feb-18 07:00N 42°00' E 010°12'2727.5 1021.8 12.0
2017-Feb-18 06:00N 42°24' E 009°54'2424.4 1022.2 11.5
2017-Feb-18 05:00N 42°48' E 010°00'1818.0 1020.8 10.7
2017-Feb-18 04:00N 43°06' E 010°00'2222.3 1020.5 11.4
2017-Feb-18 03:00N 43°24' E 009°42'2625.5 1021.1 13.2
2017-Feb-18 02:00N 43°48' E 009°30'1514.8 1021.9 12.7
2017-Feb-18 01:00N 44°00' E 009°18'2222.2 1021.8 12.3
2017-Feb-18 00:00N 44°18' E 009°00'0 0.0 1022.2 11.5
2017-Feb-17 18:00N 44°18' E 009°00'2222.2 1022.1 13.1
2017-Feb-17 17:00N 44°00' E 009°18'2020.0 1021.6 13.1
2017-Feb-17 16:00N 43°42' E 009°30'2727.3 1021.0 13.5
2017-Feb-17 15:00N 43°18' E 009°48'1514.8 1022.8 13.5
2017-Feb-17 14:00N 43°06' E 010°00'2424.4 1024.8 14.3
2017-Feb-17 13:00N 42°42' E 010°06'1817.9 1025.8 14.4
2017-Feb-17 12:00N 42°30' E 010°24'2222.4 1026.7 13.8
2017-Feb-17 11:00N 42°12' E 010°42'2020.1 1027.6 14.1
2017-Feb-17 10:00N 41°54' E 010°54'2625.6 1028.2 14.3
2017-Feb-17 09:00N 41°30' E 011°06'2020.1 1028.6 14.3
2017-Feb-17 08:00N 41°12' E 011°18'1515.0 1029.3 13.8
2017-Feb-17 07:00N 41°00' E 011°30'2020.2 1029.0 13.2
2017-Feb-17 06:00N 40°42' E 011°42'2625.7 1028.9 12.7
2017-Feb-17 05:00N 40°18' E 011°54'2322.7 1029.3 12.5
2017-Feb-17 04:00N 40°00' E 012°12'2020.2 1029.7 12.3
2017-Feb-17 03:00N 39°42' E 012°24'2625.7 1030.1 12.3
2017-Feb-17 02:00N 39°18' E 012°36'2322.8 1030.7 12.3
2017-Feb-17 01:00N 39°00' E 012°54'2625.8 1031.0 12.4
2017-Feb-17 00:00N 38°36' E 013°06'2322.9 1031.1 12.7
2017-Feb-16 23:00N 38°18' E 013°24'6 1.0 1031.7 12.3
2017-Feb-16 17:00N 38°12' E 013°24'2020.3 1031.8 13.0
2017-Feb-16 16:00N 38°30' E 013°12'2322.8 1031.4 13.8
2017-Feb-16 15:00N 38°48' E 012°54'2020.3 1032.1 14.5
2017-Feb-16 14:00N 39°06' E 012°42'2827.7 1032.5 14.8
2017-Feb-16 13:00N 39°30' E 012°24'2322.7 1032.6 14.8
2017-Feb-16 12:00N 39°48' E 012°06'2322.7 1033.1 14.6
2017-Feb-16 11:00N 40°06' E 011°48'2020.2 1033.7 14.6
2017-Feb-16 10:00N 40°24' E 011°36'2827.6 1033.7 14.4
2017-Feb-16 09:00N 40°48' E 011°18'2322.6 1033.4 14.0
2017-Feb-16 08:00N 41°06' E 011°00'2322.5 1033.5 13.4
2017-Feb-16 07:00N 41°24' E 010°42'2625.6 1033.3 12.9
2017-Feb-16 06:00N 41°48' E 010°30'2222.4 1033.0 12.8
2017-Feb-16 05:00N 42°06' E 010°12'2222.4 1033.1 12.9
2017-Feb-16 04:00N 42°24' E 009°54'2424.4 1033.3 12.7
2017-Feb-16 03:00N 42°48' E 010°00'2424.4 1033.4 12.0
2017-Feb-16 02:00N 43°12' E 009°54'2020.0 1033.6 12.3
2017-Feb-16 01:00N 43°30' E 009°42'2222.2 1033.9 12.2
2017-Feb-16 00:00N 43°48' E 009°24'2727.3 1034.1 12.0
2017-Feb-15 23:00N 44°12' E 009°06'13 2.1 1034.0 11.7
2017-Feb-15 17:00N 44°24' E 009°00'1918.5 1034.5 12.4
2017-Feb-15 16:00N 44°06' E 009°06'1312.8 1034.1 13.4
2017-Feb-15 15:00N 43°54' E 009°00'4 4.3 1035.0 14.7
2017-Feb-15 14:00N 43°54' E 008°54'7 7.4 1035.2 13.4
2017-Feb-15 13:00N 44°00' E 009°00'7 7.4 1034.7 13.6
2017-Feb-15 12:00N 43°54' E 008°54'1110.5 1036.0 14.4
2017-Feb-15 11:00N 44°00' E 009°06'1312.8 1035.7 13.6
2017-Feb-15 10:00N 44°12' E 009°00'   1035.2 13.3

Dump ship's entire track history